Cam: Der Himmel über Mannheim, aktuelles Bild mit Wetterinformationen (Metar)



Der Himmel über Mannheim
Die WebCam zeigt nach Norden. (Feudenheim 3km, Vogelstang 6km, Frankfurt 70km)

Letzter SYNOP von MA-Vogelstang. Zeitformat[UTC].
Beispiel: 18hr entspricht 19:00 Uhr oder bei Sommerzeit 20 Uhr


Das aktuelle Wetter in Baden Wurttemberg, Neuostheim, Germany:

Baden Wurttemberg, Neuostheim, Germany stehen keine DATEN zur Verfügung.
METAR:

Das aktuelle Wetter in Mannheim, Seckenheim, Germany

0968: Neuester Wetterbericht von 08:55 Uhr. Die Windgeschwindigkeit war 0.5 m/s (1.2 Meilen pro Stunde) und er kam aus Südwest (220°). Die Temperatur war 4 °C (39 °F) bei einem Taupunkt von 1 °C (34 °F). Der Luftdruck stand auf 1005 hPa (29.68 inHg). Die relative Luftfeuchtigkeit erreichte 80.8%.
METAR: 09682 120755Z 22001KT 04/01 Q1005

Mehr zum Thema Metar


Nach oben

HomeHome

Schnellzugriff auf diese Seite mit c.maw24.de oder cam.Mannheim-Wetter.Info


XHTML 1.0 Transitional